Aérodrome :
LOGIN :

S'inscrire | Disclaimer

   EN    FR    IT 

 










Légende :    VFR   VFR Marginal   IFR   IFR Intensif   IFR Très Intensif
Visi : 
Plafond : 
>= 8 km
>= 3000ft
5 à 8 km
1000 à 3000 ft
1500m à 5 km
500 à 1000 ft
800 à 1500m
200 à 500 ft
< 800m
< 200 ft
Symboles :   Orages  Brouillard  Fortes neiges  Fortes précipitations  Vent > 20 kt
SIGMETs :   Divers  Orages  Givrage  Turbulence  Onde Orograph.  Cendres Volcan.







- Altitude de l'aérodrome : 219 ft
- Code IATA : DNR
- Voir les cartes d'approche


LFRD - Dinard

DERNIER METAR :
  • 210430Z AUTO 25005KT 5000 BR BKN006 OVC012 09/08 Q1016 TEMPO 0500 DZ FG VV///

METARs EXPIRÉS :
  • 210400Z AUTO 29007KT 9000 -DZ OVC016 09/07 Q1016 TEMPO 0500 DZ FG VV///
  • 210330Z AUTO 28006KT 9000 BKN020 OVC028 09/07 Q1016 TEMPO 3000 RADZ BKN003
  • 210300Z AUTO 28006KT 9000 -RA FEW025 BKN033 OVC040 10/08 Q1015 TEMPO 3000 RADZ BKN003
  • 210230Z AUTO 27008KT 9999 BKN037 BKN043 OVC054 10/07 Q1015 TEMPO 4000 RADZ BKN008
  • 210200Z AUTO 28010KT 9000 FEW040 SCT050 BKN064 10/08 Q1015 TEMPO 4000 RADZ BKN008

TAF TAF LFRD
Valide du 21 à 00h jusqu'au 22 à 00h UTC


202300Z 2100/2124 29013KT 9999 BKN015
TEMPO 2100/2105 4000 RADZ BKN008
BECMG 2103/2105 VRB03KT
TEMPO 2105/2124 3000 RADZ BKN003
PROB30
TEMPO 2106/2109 0500 DZ FG VV///
BECMG 2107/2109 27014KT
TEMPO 2109/2121 27015G25KT
ATIS : +33 2 99 16 81 50
Pas de NOTAMs connus pour ce terrain.



MET'MAP, la Météo Aéronautique d'un coup d'oeil ! - Copyright ORBIFLY Décembre 2007 - Disclaimer

ORBIFLY MET'MAP TEAM :

Programmation & Développement : Alexandra Zaïnal
Conception & Développement : Baudouin d'Aumeries
Co-Programmation & Développement : Marc-Olivier Méhu
Soutien technique & logistique : Manuel Goepfert

Contact : metmap@orbifly.com




SOURCES & CREDITS :

   NOAA